createdAt,value
2022-08-24T00:00:20.896Z,9.10
2022-08-24T00:01:18.187Z,8.77
2022-08-24T00:02:15.081Z,9.75
2022-08-24T00:03:13.410Z,8.63
2022-08-24T00:04:10.119Z,10.68
2022-08-24T00:05:14.617Z,12.90
2022-08-24T00:06:15.910Z,9.27
2022-08-24T00:07:17.957Z,9.13
2022-08-24T00:08:25.309Z,9.73
2022-08-24T00:09:22.122Z,9.63
2022-08-24T00:10:21.252Z,8.90
2022-08-24T00:11:18.920Z,8.95
2022-08-24T00:12:15.951Z,10.00
2022-08-24T00:13:14.284Z,13.63
2022-08-24T00:14:12.089Z,13.38
2022-08-24T00:15:11.733Z,10.55
2022-08-24T00:16:10.124Z,9.55
2022-08-24T00:17:06.920Z,9.32
2022-08-24T00:18:04.480Z,13.05
2022-08-24T00:19:01.443Z,14.25
2022-08-24T00:19:58.090Z,14.15
2022-08-24T00:20:55.181Z,14.88
2022-08-24T00:21:52.618Z,15.30
2022-08-24T00:22:49.311Z,13.95
2022-08-24T00:23:49.624Z,14.10
2022-08-24T00:24:46.390Z,13.43
2022-08-24T00:25:43.603Z,14.70
2022-08-24T00:26:40.303Z,13.55
2022-08-24T00:27:38.224Z,13.15
2022-08-24T00:28:36.008Z,12.75
2022-08-24T00:29:33.281Z,12.70
2022-08-24T00:30:29.969Z,12.93
2022-08-24T00:31:26.733Z,12.57
2022-08-24T00:32:23.473Z,12.60
2022-08-24T00:33:20.163Z,12.75
2022-08-24T00:34:17.913Z,12.13
2022-08-24T00:35:18.409Z,12.65
2022-08-24T00:36:15.193Z,11.98
2022-08-24T00:37:11.893Z,11.50
2022-08-24T00:38:08.620Z,12.55
2022-08-24T00:39:06.612Z,10.52
2022-08-24T00:40:14.085Z,12.05
2022-08-24T00:41:10.769Z,11.57
2022-08-24T00:42:07.486Z,12.10
2022-08-24T00:43:07.234Z,11.30
2022-08-24T00:44:06.488Z,11.77
2022-08-24T00:45:03.495Z,11.88
2022-08-24T00:46:11.245Z,12.30
2022-08-24T00:47:18.468Z,10.48
2022-08-24T00:48:20.538Z,8.95
2022-08-24T00:49:37.560Z,9.50
2022-08-24T00:50:49.251Z,8.90
2022-08-24T00:51:58.495Z,11.57
2022-08-24T00:53:01.701Z,11.07
2022-08-24T00:54:05.049Z,11.32
2022-08-24T00:55:15.790Z,10.82
2022-08-24T00:56:19.210Z,10.35
2022-08-24T00:57:20.658Z,9.63
2022-08-24T00:58:25.780Z,10.95
2022-08-24T00:59:37.180Z,10.35
2022-08-24T01:00:42.585Z,9.95
2022-08-24T01:01:45.328Z,9.68
2022-08-24T01:02:45.237Z,9.40
2022-08-24T01:03:43.895Z,9.90
2022-08-24T01:04:52.199Z,7.72
2022-08-24T01:05:48.891Z,9.23
2022-08-24T01:06:46.379Z,8.23
2022-08-24T01:07:43.255Z,7.47
2022-08-24T01:08:41.101Z,8.85
2022-08-24T01:09:37.859Z,7.22
2022-08-24T01:10:41.908Z,8.23
2022-08-24T01:11:38.630Z,7.88
2022-08-24T01:12:38.145Z,6.07
2022-08-24T01:13:35.533Z,8.18
2022-08-24T01:14:32.255Z,8.02
2022-08-24T01:15:31.404Z,8.02
2022-08-24T01:16:47.153Z,7.85
2022-08-24T01:18:02.646Z,8.02
2022-08-24T01:18:59.422Z,8.27
2022-08-24T01:19:58.703Z,7.47
2022-08-24T01:21:09.162Z,8.18
2022-08-24T01:22:30.688Z,8.43
2022-08-24T01:23:41.690Z,7.90
2022-08-24T01:24:39.439Z,6.85
2022-08-24T01:25:38.271Z,7.97
2022-08-24T01:26:43.706Z,8.05
2022-08-24T01:27:44.050Z,7.07
2022-08-24T01:28:44.137Z,7.88
2022-08-24T01:29:44.251Z,7.68
2022-08-24T01:30:43.172Z,6.70
2022-08-24T01:31:40.154Z,7.47
2022-08-24T01:32:36.884Z,6.68
2022-08-24T01:33:33.673Z,7.00
2022-08-24T01:34:30.528Z,7.05
2022-08-24T01:35:28.057Z,7.35
2022-08-24T01:36:38.110Z,6.60
2022-08-24T01:37:36.035Z,7.65
2022-08-24T01:38:33.899Z,6.90
2022-08-24T01:39:34.289Z,7.20
2022-08-24T01:40:35.790Z,6.50
2022-08-24T01:41:32.466Z,6.97
2022-08-24T01:42:30.034Z,6.63
2022-08-24T01:43:26.878Z,7.22
2022-08-24T01:44:25.903Z,7.20
2022-08-24T01:45:22.664Z,7.28
2022-08-24T01:46:19.382Z,5.72
2022-08-24T01:47:17.299Z,5.00
2022-08-24T01:48:15.410Z,5.43
2022-08-24T01:49:22.097Z,5.22
2022-08-24T01:50:18.914Z,6.07
2022-08-24T01:51:15.565Z,5.40
2022-08-24T01:52:16.426Z,5.10
2022-08-24T01:53:13.318Z,5.72
2022-08-24T01:54:09.982Z,6.10
2022-08-24T01:55:09.323Z,5.32
2022-08-24T01:56:06.139Z,6.10
2022-08-24T01:57:03.722Z,5.45
2022-08-24T01:58:00.759Z,5.80
2022-08-24T01:58:58.398Z,6.32
2022-08-24T01:59:55.274Z,6.30
2022-08-24T02:00:52.020Z,6.07
2022-08-24T02:01:52.823Z,5.80
2022-08-24T02:02:49.641Z,6.93
2022-08-24T02:03:46.742Z,5.00
2022-08-24T02:04:48.869Z,6.18
2022-08-24T02:05:45.669Z,4.80
2022-08-24T02:06:44.766Z,6.20
2022-08-24T02:07:41.579Z,6.75
2022-08-24T02:08:38.674Z,5.95
2022-08-24T02:09:36.735Z,5.18
2022-08-24T02:10:33.609Z,6.80
2022-08-24T02:11:30.381Z,6.78
2022-08-24T02:12:27.303Z,7.32
2022-08-24T02:13:24.010Z,6.35
2022-08-24T02:14:21.162Z,5.47
2022-08-24T02:15:17.803Z,6.05
2022-08-24T02:16:15.076Z,6.05
2022-08-24T02:17:11.885Z,6.68
2022-08-24T02:18:15.067Z,6.07
2022-08-24T02:19:12.556Z,6.00
2022-08-24T02:20:09.783Z,4.35
2022-08-24T02:21:11.509Z,5.07
2022-08-24T02:22:08.189Z,5.55
2022-08-24T02:23:06.962Z,5.20
2022-08-24T02:24:04.374Z,5.50
2022-08-24T02:25:01.739Z,6.93
2022-08-24T02:25:58.486Z,5.97
2022-08-24T02:26:56.447Z,5.60
2022-08-24T02:27:53.152Z,6.55
2022-08-24T02:28:49.802Z,7.07
2022-08-24T02:29:46.987Z,6.00
2022-08-24T02:30:44.320Z,6.05
2022-08-24T02:31:41.120Z,5.55
2022-08-24T02:32:37.813Z,6.03
2022-08-24T02:33:35.836Z,5.30
2022-08-24T02:34:32.632Z,7.03
2022-08-24T02:35:31.012Z,6.15
2022-08-24T02:36:27.654Z,6.68
2022-08-24T02:37:24.277Z,6.28
2022-08-24T02:38:21.546Z,6.57
2022-08-24T02:39:18.197Z,6.43
2022-08-24T02:40:15.741Z,7.20
2022-08-24T02:41:12.459Z,5.63
2022-08-24T02:42:09.763Z,6.45
2022-08-24T02:43:06.524Z,5.40
2022-08-24T02:44:04.918Z,6.53
2022-08-24T02:45:02.691Z,6.47
2022-08-24T02:45:59.929Z,5.53
2022-08-24T02:46:56.678Z,6.05
2022-08-24T02:47:53.827Z,5.90
2022-08-24T02:48:57.437Z,6.45
2022-08-24T02:50:10.433Z,5.13
2022-08-24T02:51:07.086Z,5.22
2022-08-24T02:52:04.306Z,7.15
2022-08-24T02:53:00.921Z,5.97
2022-08-24T02:53:59.141Z,6.18
2022-08-24T02:54:55.784Z,5.25
2022-08-24T02:55:52.684Z,7.07
2022-08-24T02:56:49.466Z,6.50
2022-08-24T02:57:47.839Z,7.55
2022-08-24T02:58:45.522Z,6.75
2022-08-24T02:59:42.212Z,5.85
2022-08-24T03:00:41.580Z,4.88
2022-08-24T03:01:38.277Z,5.53
2022-08-24T03:02:35.307Z,5.60
2022-08-24T03:03:32.936Z,5.78
2022-08-24T03:04:29.760Z,6.22
2022-08-24T03:05:26.547Z,6.15
2022-08-24T03:06:23.237Z,6.95
2022-08-24T03:07:20.117Z,6.03
2022-08-24T03:08:16.820Z,5.95
2022-08-24T03:09:14.279Z,7.72
2022-08-24T03:10:12.409Z,7.70
2022-08-24T03:11:09.217Z,6.28
2022-08-24T03:12:06.118Z,6.20
2022-08-24T03:13:03.355Z,6.57
2022-08-24T03:14:00.305Z,7.28
2022-08-24T03:14:57.020Z,5.75
2022-08-24T03:15:55.590Z,6.60
2022-08-24T03:16:52.295Z,6.70
2022-08-24T03:17:49.876Z,6.80
2022-08-24T03:18:46.500Z,6.20
2022-08-24T03:19:43.182Z,6.72
2022-08-24T03:20:39.946Z,6.15
2022-08-24T03:21:36.911Z,6.85
2022-08-24T03:22:33.988Z,6.43
2022-08-24T03:23:34.312Z,6.57
2022-08-24T03:24:31.618Z,5.80
2022-08-24T03:25:29.547Z,6.82
2022-08-24T03:26:26.248Z,4.88
2022-08-24T03:27:23.149Z,5.80
2022-08-24T03:28:21.467Z,5.20
2022-08-24T03:29:20.805Z,6.05
2022-08-24T03:30:22.067Z,6.60
2022-08-24T03:31:18.846Z,6.40
2022-08-24T03:32:15.743Z,6.75
2022-08-24T03:33:12.544Z,6.40
2022-08-24T03:34:10.258Z,6.55
2022-08-24T03:35:08.212Z,6.07
2022-08-24T03:36:05.004Z,5.85
2022-08-24T03:37:02.035Z,5.55
2022-08-24T03:37:58.653Z,5.90
2022-08-24T03:38:55.312Z,6.25
2022-08-24T03:39:52.031Z,6.22
2022-08-24T03:40:49.037Z,5.93
2022-08-24T03:41:45.755Z,6.18
2022-08-24T03:42:42.514Z,6.03
2022-08-24T03:43:46.282Z,5.80
2022-08-24T03:44:42.961Z,6.60
2022-08-24T03:45:39.684Z,6.30
2022-08-24T03:46:37.828Z,5.85
2022-08-24T03:47:34.610Z,6.03
2022-08-24T03:48:32.666Z,5.97
2022-08-24T03:49:29.362Z,5.03
2022-08-24T03:50:27.246Z,5.70
2022-08-24T03:51:26.691Z,5.15
2022-08-24T03:52:23.452Z,5.30
2022-08-24T03:53:22.563Z,5.00
2022-08-24T03:54:19.876Z,4.97
2022-08-24T03:55:16.571Z,5.50
2022-08-24T03:56:13.505Z,6.40
2022-08-24T03:57:10.165Z,5.45
2022-08-24T03:58:06.808Z,6.03
2022-08-24T03:59:07.768Z,5.32
2022-08-24T04:00:07.048Z,4.90
2022-08-24T04:01:04.896Z,6.45
2022-08-24T04:02:01.707Z,6.05
2022-08-24T04:02:58.467Z,5.50
2022-08-24T04:03:55.425Z,6.63
2022-08-24T04:04:52.229Z,6.13
2022-08-24T04:05:48.893Z,6.05
2022-08-24T04:06:46.909Z,5.47
2022-08-24T04:07:43.604Z,5.80
2022-08-24T04:08:41.744Z,6.15
2022-08-24T04:09:38.528Z,6.05
2022-08-24T04:10:35.389Z,6.32
2022-08-24T04:11:37.344Z,6.07
2022-08-24T04:12:36.114Z,5.93
2022-08-24T04:13:33.087Z,6.03
2022-08-24T04:14:29.766Z,5.72
2022-08-24T04:15:26.377Z,5.93
2022-08-24T04:16:24.446Z,5.05
2022-08-24T04:17:21.152Z,5.20
2022-08-24T04:18:17.763Z,5.65
2022-08-24T04:19:14.840Z,5.50
2022-08-24T04:20:11.767Z,4.95
2022-08-24T04:21:20.586Z,5.57
2022-08-24T04:22:17.214Z,5.70
2022-08-24T04:23:15.286Z,6.00
2022-08-24T04:24:12.166Z,5.63
2022-08-24T04:25:09.931Z,5.30
2022-08-24T04:26:06.721Z,5.60
2022-08-24T04:27:06.494Z,5.25
2022-08-24T04:28:03.419Z,5.10
2022-08-24T04:29:00.202Z,5.95
2022-08-24T04:29:56.865Z,5.28
2022-08-24T04:30:53.497Z,4.97
2022-08-24T04:31:50.221Z,5.72
2022-08-24T04:32:46.841Z,5.53
2022-08-24T04:33:43.510Z,5.00
2022-08-24T04:34:40.119Z,5.43
2022-08-24T04:35:42.349Z,4.78
2022-08-24T04:36:45.026Z,5.47
2022-08-24T04:37:41.863Z,5.22
2022-08-24T04:38:39.314Z,4.97
2022-08-24T04:39:35.980Z,4.80
2022-08-24T04:40:39.627Z,5.20
2022-08-24T04:41:36.968Z,4.85
2022-08-24T04:42:33.588Z,5.00
2022-08-24T04:43:30.355Z,5.38
2022-08-24T04:44:27.953Z,4.93
2022-08-24T04:45:29.302Z,5.53
2022-08-24T04:46:26.662Z,4.70
2022-08-24T04:47:23.841Z,4.78
2022-08-24T04:48:20.515Z,4.63
2022-08-24T04:49:17.193Z,5.32
2022-08-24T04:50:14.144Z,4.68
2022-08-24T04:51:14.671Z,4.10
2022-08-24T04:52:11.317Z,4.47
2022-08-24T04:53:08.432Z,4.15
2022-08-24T04:54:06.411Z,5.18
2022-08-24T04:55:03.353Z,4.85
2022-08-24T04:56:00.621Z,4.78
2022-08-24T04:56:57.299Z,4.43
2022-08-24T04:57:53.910Z,4.43
2022-08-24T04:58:54.561Z,4.82
2022-08-24T04:59:51.219Z,4.65
2022-08-24T05:00:47.995Z,4.47
2022-08-24T05:01:44.965Z,4.80
2022-08-24T05:02:44.903Z,4.10
2022-08-24T05:03:45.865Z,4.50
2022-08-24T05:04:42.491Z,3.60
2022-08-24T05:05:44.526Z,3.97
2022-08-24T05:06:42.093Z,4.03
2022-08-24T05:07:39.135Z,4.32
2022-08-24T05:08:35.844Z,4.13
2022-08-24T05:09:32.961Z,4.20
2022-08-24T05:10:33.591Z,4.35
2022-08-24T05:11:31.209Z,3.88
2022-08-24T05:12:28.054Z,4.60
2022-08-24T05:13:24.997Z,4.22
2022-08-24T05:14:23.663Z,4.20
2022-08-24T05:15:23.446Z,4.03
2022-08-24T05:16:21.513Z,4.25
2022-08-24T05:17:18.292Z,4.53
2022-08-24T05:18:17.204Z,4.47
2022-08-24T05:19:14.205Z,4.78
2022-08-24T05:20:11.605Z,4.45
2022-08-24T05:21:10.598Z,4.45
2022-08-24T05:22:07.705Z,4.40
2022-08-24T05:23:04.750Z,4.28
2022-08-24T05:24:01.590Z,4.40
2022-08-24T05:24:58.360Z,4.43
2022-08-24T05:26:06.115Z,4.35
2022-08-24T05:27:02.760Z,4.20
2022-08-24T05:28:00.739Z,4.70
2022-08-24T05:29:00.385Z,4.57
2022-08-24T05:29:57.073Z,4.55
2022-08-24T05:30:53.737Z,4.30
2022-08-24T05:31:50.477Z,4.30
2022-08-24T05:32:47.286Z,4.45
2022-08-24T05:33:44.829Z,4.40
2022-08-24T05:34:41.456Z,4.32
2022-08-24T05:35:41.749Z,4.18
2022-08-24T05:36:41.749Z,4.47
2022-08-24T05:37:39.675Z,4.63
2022-08-24T05:38:36.381Z,4.60
2022-08-24T05:39:33.143Z,4.30
2022-08-24T05:40:33.259Z,4.53
2022-08-24T05:41:30.315Z,3.97
2022-08-24T05:42:26.975Z,3.97
2022-08-24T05:43:23.866Z,4.53
2022-08-24T05:44:20.518Z,4.38
2022-08-24T05:45:17.313Z,4.47
2022-08-24T05:46:15.671Z,4.53
2022-08-24T05:47:12.361Z,4.72
2022-08-24T05:48:08.962Z,4.15
2022-08-24T05:49:06.088Z,4.40
2022-08-24T05:50:03.754Z,3.95
2022-08-24T05:51:01.193Z,3.85
2022-08-24T05:51:57.927Z,4.20
2022-08-24T05:52:54.674Z,4.22
2022-08-24T05:53:51.464Z,4.32
2022-08-24T05:54:56.957Z,4.30
2022-08-24T05:55:54.380Z,4.15
2022-08-24T05:56:52.009Z,4.95
2022-08-24T05:57:50.384Z,5.30
2022-08-24T05:58:47.619Z,5.93
2022-08-24T05:59:45.785Z,5.75
2022-08-24T06:00:45.993Z,5.05
2022-08-24T06:01:45.260Z,5.50
2022-08-24T06:02:43.450Z,5.00
2022-08-24T06:03:40.775Z,4.97
2022-08-24T06:04:38.329Z,5.03
2022-08-24T06:05:39.977Z,4.82
2022-08-24T06:06:36.718Z,4.30
2022-08-24T06:07:34.396Z,5.00
2022-08-24T06:08:31.250Z,4.30
2022-08-24T06:09:27.981Z,4.70
2022-08-24T06:10:39.711Z,4.38
2022-08-24T06:11:39.258Z,4.30
2022-08-24T06:12:36.655Z,4.43
2022-08-24T06:13:34.443Z,4.55
2022-08-24T06:14:31.263Z,4.60
2022-08-24T06:15:27.876Z,3.97
2022-08-24T06:16:25.709Z,4.22
2022-08-24T06:17:22.619Z,4.38
2022-08-24T06:18:20.898Z,4.10
2022-08-24T06:19:19.540Z,4.40
2022-08-24T06:20:16.338Z,4.55
2022-08-24T06:21:16.263Z,4.90
2022-08-24T06:22:13.480Z,4.90
2022-08-24T06:23:10.551Z,4.90
2022-08-24T06:24:08.320Z,4.25
2022-08-24T06:25:24.130Z,4.70
2022-08-24T06:26:40.732Z,5.00
2022-08-24T06:27:37.405Z,4.60
2022-08-24T06:28:34.577Z,4.40
2022-08-24T06:29:34.209Z,5.18
2022-08-24T06:30:30.972Z,4.80
2022-08-24T06:31:28.223Z,4.65
2022-08-24T06:32:25.835Z,4.55
2022-08-24T06:33:22.556Z,4.70
2022-08-24T06:34:20.156Z,4.60
2022-08-24T06:35:16.891Z,4.82
2022-08-24T06:36:14.550Z,4.00
2022-08-24T06:37:13.682Z,4.35
2022-08-24T06:38:11.069Z,4.22
2022-08-24T06:39:10.032Z,4.40
2022-08-24T06:40:07.969Z,4.57
2022-08-24T06:41:05.163Z,4.03
2022-08-24T06:42:04.041Z,4.25
2022-08-24T06:43:04.472Z,3.15
2022-08-24T06:44:01.438Z,3.88
2022-08-24T06:44:58.132Z,3.55
2022-08-24T06:45:56.160Z,3.35
2022-08-24T06:46:52.830Z,3.80
2022-08-24T06:47:49.791Z,3.63
2022-08-24T06:48:46.541Z,3.63
2022-08-24T06:49:43.294Z,4.22
2022-08-24T06:50:40.639Z,4.20
2022-08-24T06:51:37.269Z,4.63
2022-08-24T06:52:35.582Z,4.30
2022-08-24T06:53:32.236Z,4.60
2022-08-24T06:54:28.866Z,3.42
2022-08-24T06:55:25.634Z,4.30
2022-08-24T06:56:22.343Z,3.70
2022-08-24T06:57:19.274Z,3.40
2022-08-24T06:58:16.288Z,3.60
2022-08-24T06:59:13.005Z,4.45
2022-08-24T07:00:11.045Z,4.90
2022-08-24T07:01:09.797Z,4.93
2022-08-24T07:02:08.738Z,4.47
2022-08-24T07:03:05.557Z,5.10
2022-08-24T07:04:02.590Z,4.30
2022-08-24T07:05:00.088Z,3.83
2022-08-24T07:05:58.527Z,4.30
2022-08-24T07:06:55.678Z,4.03
2022-08-24T07:07:52.443Z,4.45
2022-08-24T07:08:49.612Z,3.60
2022-08-24T07:09:46.368Z,4.13
2022-08-24T07:10:43.117Z,4.30
2022-08-24T07:11:40.099Z,4.07
2022-08-24T07:12:37.421Z,3.60
2022-08-24T07:13:34.345Z,3.70
2022-08-24T07:14:31.263Z,3.03
2022-08-24T07:15:28.036Z,3.35
2022-08-24T07:16:24.981Z,3.28
2022-08-24T07:17:23.053Z,3.00
2022-08-24T07:18:20.842Z,3.20
2022-08-24T07:19:18.626Z,3.00
2022-08-24T07:20:17.555Z,3.15
2022-08-24T07:21:14.372Z,3.22
2022-08-24T07:22:11.092Z,3.25
2022-08-24T07:23:07.833Z,3.17
2022-08-24T07:24:04.604Z,2.60
2022-08-24T07:25:01.552Z,2.95
2022-08-24T07:26:06.007Z,3.30
2022-08-24T07:27:03.471Z,3.08
2022-08-24T07:28:01.275Z,3.00
2022-08-24T07:29:07.717Z,3.42
2022-08-24T07:30:25.990Z,2.97
2022-08-24T07:31:21.620Z,2.50
2022-08-24T07:32:18.374Z,2.95
2022-08-24T07:33:15.053Z,3.08
2022-08-24T07:34:12.341Z,3.40
2022-08-24T07:35:09.315Z,3.00
2022-08-24T07:36:06.211Z,3.10
2022-08-24T07:37:03.883Z,3.25
2022-08-24T07:38:00.865Z,2.67
2022-08-24T07:38:57.912Z,2.80
2022-08-24T07:39:54.624Z,2.92
2022-08-24T07:41:36.131Z,2.70
2022-08-24T07:42:13.859Z,2.78
2022-08-24T07:43:12.681Z,2.97
2022-08-24T07:44:10.523Z,3.10
2022-08-24T07:45:07.448Z,3.22
2022-08-24T07:46:05.811Z,2.53
2022-08-24T07:47:20.721Z,3.42
2022-08-24T07:48:19.358Z,2.97
2022-08-24T07:49:36.766Z,2.58
2022-08-24T07:50:32.835Z,3.10
2022-08-24T07:52:32.307Z,2.72
2022-08-24T07:53:37.856Z,2.50
2022-08-24T07:54:46.125Z,3.42
2022-08-24T07:55:46.270Z,2.50
2022-08-24T07:56:43.663Z,3.00
2022-08-24T07:57:41.399Z,3.08
2022-08-24T07:58:38.800Z,2.75
2022-08-24T07:59:36.783Z,2.97
2022-08-24T08:00:33.546Z,2.53
2022-08-24T08:01:31.249Z,2.97
2022-08-24T08:02:30.812Z,2.80
2022-08-24T08:03:34.164Z,2.78
2022-08-24T08:04:32.166Z,2.72
2022-08-24T08:05:28.820Z,2.50
2022-08-24T08:06:25.596Z,2.22
2022-08-24T08:07:22.852Z,2.85
2022-08-24T08:08:20.319Z,2.50
2022-08-24T08:09:17.020Z,2.80
2022-08-24T08:10:13.906Z,3.05
2022-08-24T08:11:11.694Z,3.20
2022-08-24T08:12:09.275Z,2.40
2022-08-24T08:13:07.787Z,2.67
2022-08-24T08:14:05.889Z,2.75
2022-08-24T08:15:04.216Z,2.78
2022-08-24T08:16:02.304Z,3.40
2022-08-24T08:17:00.673Z,2.72
2022-08-24T08:17:58.154Z,2.70
2022-08-24T08:19:11.072Z,8.88
2022-08-24T08:20:09.672Z,3.63
2022-08-24T08:21:27.063Z,22.23
2022-08-24T08:22:42.980Z,63.83
2022-08-24T08:23:58.594Z,11.40
2022-08-24T08:24:55.370Z,54.45
2022-08-24T08:25:54.909Z,49.72
2022-08-24T08:26:51.887Z,8.73
2022-08-24T08:27:48.642Z,39.80
2022-08-24T08:28:45.357Z,138.88
2022-08-24T08:29:42.618Z,125.90
2022-08-24T08:30:42.039Z,215.50
2022-08-24T08:31:39.210Z,233.32
2022-08-24T08:32:36.011Z,114.70
2022-08-24T08:33:32.837Z,171.60
2022-08-24T08:34:31.500Z,109.10
2022-08-24T08:35:28.417Z,28.45
2022-08-24T08:36:25.675Z,5.93
2022-08-24T08:37:22.658Z,3.00
2022-08-24T08:38:23.352Z,5.05
2022-08-24T08:39:22.007Z,2.67
2022-08-24T08:40:55.501Z,24.92
2022-08-24T08:42:00.268Z,3.87
2022-08-24T08:43:01.926Z,16.27
2022-08-24T08:44:14.819Z,2.33
2022-08-24T08:45:34.053Z,3.63
2022-08-24T08:46:40.537Z,3.22
2022-08-24T08:47:59.360Z,3.25
2022-08-24T08:49:36.373Z,4.70
2022-08-24T08:50:59.514Z,3.00
2022-08-24T08:52:05.331Z,16.20
2022-08-24T08:53:53.826Z,11.32
2022-08-24T08:54:50.397Z,2.90
2022-08-24T08:56:25.978Z,9.90
2022-08-24T08:57:25.673Z,5.38
2022-08-24T08:58:32.839Z,15.00
2022-08-24T08:59:36.461Z,3.00
2022-08-24T09:00:54.393Z,18.08
2022-08-24T09:02:00.747Z,12.90
2022-08-24T09:03:09.585Z,3.20
2022-08-24T09:04:15.768Z,4.53
2022-08-24T09:05:33.243Z,4.05
2022-08-24T09:07:00.742Z,3.35
2022-08-24T09:08:23.738Z,3.10
2022-08-24T09:09:20.410Z,3.38
2022-08-24T09:10:39.754Z,3.97
2022-08-24T09:12:08.982Z,2.90
2022-08-24T09:13:30.019Z,3.30
2022-08-24T09:14:57.276Z,3.25
2022-08-24T09:15:55.986Z,3.47
2022-08-24T09:17:13.483Z,4.38
2022-08-24T09:18:44.364Z,3.70
2022-08-24T09:19:46.992Z,3.20
2022-08-24T09:21:20.408Z,3.20
2022-08-24T09:22:20.295Z,3.20
2022-08-24T09:23:31.725Z,3.65
2022-08-24T09:24:48.540Z,3.15
2022-08-24T09:25:58.057Z,3.60
2022-08-24T09:27:12.653Z,3.35
2022-08-24T09:28:35.100Z,3.50
2022-08-24T09:29:50.198Z,3.30
2022-08-24T09:31:02.199Z,3.55
2022-08-24T09:32:12.261Z,3.42
2022-08-24T09:33:30.074Z,3.50
2022-08-24T09:34:57.154Z,3.35
2022-08-24T09:36:23.125Z,2.90
2022-08-24T09:37:50.475Z,3.60
2022-08-24T09:38:56.615Z,3.30
2022-08-24T09:40:00.076Z,3.10
2022-08-24T09:41:33.646Z,3.10
2022-08-24T09:42:58.141Z,3.53
2022-08-24T09:44:13.028Z,3.08
2022-08-24T09:45:32.674Z,2.67
2022-08-24T09:46:35.654Z,3.17
2022-08-24T09:47:54.587Z,2.85
2022-08-24T09:49:14.261Z,2.97
2022-08-24T09:50:16.889Z,2.80
2022-08-24T09:52:46.723Z,3.30
2022-08-24T09:53:58.404Z,2.92
2022-08-24T09:55:36.423Z,2.75
2022-08-24T09:57:19.502Z,3.05
2022-08-24T09:58:37.724Z,3.17
2022-08-24T09:59:52.583Z,3.17
2022-08-24T10:00:55.051Z,3.22
2022-08-24T10:02:22.671Z,2.60
2022-08-24T10:03:41.262Z,3.00
2022-08-24T10:05:19.850Z,3.35
2022-08-24T10:06:33.491Z,3.38
2022-08-24T10:08:07.574Z,2.95
2022-08-24T10:09:32.432Z,2.90
2022-08-24T10:11:05.953Z,2.63
2022-08-24T10:12:39.851Z,3.47
2022-08-24T10:13:47.460Z,3.30
2022-08-24T10:15:11.590Z,3.63
2022-08-24T10:16:27.358Z,3.55
2022-08-24T10:17:33.049Z,3.30
2022-08-24T10:18:48.158Z,3.47
2022-08-24T10:20:00.686Z,3.75
2022-08-24T10:21:18.033Z,3.47
2022-08-24T10:22:41.559Z,3.22
2022-08-24T10:24:00.024Z,3.38
2022-08-24T10:25:11.934Z,2.83
2022-08-24T10:26:11.205Z,3.10
2022-08-24T10:27:45.515Z,3.22
2022-08-24T10:30:05.199Z,3.05
2022-08-24T10:31:12.529Z,3.38
2022-08-24T10:32:28.670Z,3.15
2022-08-24T10:33:29.133Z,3.60
2022-08-24T10:34:26.670Z,4.13
2022-08-24T10:35:32.565Z,3.90
2022-08-24T10:37:06.247Z,4.43
2022-08-24T10:38:49.990Z,3.95
2022-08-24T10:40:03.009Z,4.32
2022-08-24T10:41:21.145Z,4.55
2022-08-24T10:42:55.355Z,4.40
2022-08-24T10:44:25.738Z,4.20
2022-08-24T10:45:40.543Z,4.82
2022-08-24T10:46:40.272Z,4.75
2022-08-24T10:47:38.131Z,4.65
2022-08-24T10:48:34.853Z,4.38
2022-08-24T10:49:35.307Z,4.20
2022-08-24T10:50:46.631Z,4.20
2022-08-24T10:52:01.692Z,4.20
2022-08-24T10:53:22.730Z,4.70
2022-08-24T10:54:20.740Z,4.45
2022-08-24T10:55:24.885Z,4.47
2022-08-24T10:56:34.804Z,4.47
2022-08-24T10:57:49.659Z,4.28
2022-08-24T10:59:09.721Z,3.72
2022-08-24T11:00:22.715Z,4.60
2022-08-24T11:01:27.053Z,3.83
2022-08-24T11:02:33.371Z,4.55
2022-08-24T11:03:30.331Z,4.15
2022-08-24T11:04:30.472Z,4.65
2022-08-24T11:05:41.409Z,4.70
2022-08-24T11:06:45.165Z,4.72
2022-08-24T11:08:08.449Z,4.82
2022-08-24T11:09:10.381Z,4.18
2022-08-24T11:10:10.036Z,4.78
2022-08-24T11:11:22.393Z,4.90
2022-08-24T11:12:30.203Z,4.55
2022-08-24T11:13:27.378Z,4.95
2022-08-24T11:14:29.120Z,4.30
2022-08-24T11:15:28.302Z,5.10
2022-08-24T11:16:32.885Z,5.55
2022-08-24T11:17:34.836Z,4.93
2022-08-24T11:18:53.369Z,5.22
2022-08-24T11:19:51.665Z,4.80
2022-08-24T11:20:53.669Z,4.72
2022-08-24T11:21:53.447Z,5.22
2022-08-24T11:23:09.892Z,4.57
2022-08-24T11:24:13.376Z,5.00
2022-08-24T11:25:42.500Z,4.82
2022-08-24T11:26:55.277Z,5.10
2022-08-24T11:29:00.881Z,5.38
2022-08-24T11:30:00.794Z,4.70
2022-08-24T11:30:58.203Z,4.78
2022-08-24T11:31:54.986Z,4.53
2022-08-24T11:32:53.582Z,4.35
2022-08-24T11:33:59.363Z,4.55
2022-08-24T11:35:02.118Z,5.47
2022-08-24T11:36:00.933Z,5.50
2022-08-24T11:36:58.036Z,5.03
2022-08-24T11:38:03.474Z,5.03
2022-08-24T11:39:17.754Z,4.93
2022-08-24T11:40:16.943Z,4.68
2022-08-24T11:41:22.821Z,5.15
2022-08-24T11:42:34.754Z,5.13
2022-08-24T11:44:04.338Z,4.40
2022-08-24T11:45:19.960Z,5.78
2022-08-24T11:46:38.210Z,5.05
2022-08-24T11:47:52.081Z,5.13
2022-08-24T11:49:23.911Z,4.93
2022-08-24T11:50:26.924Z,4.72
2022-08-24T11:51:35.862Z,5.32
2022-08-24T11:52:47.572Z,4.97
2022-08-24T11:53:47.280Z,5.45
2022-08-24T11:55:02.391Z,4.80
2022-08-24T11:56:38.941Z,5.07
2022-08-24T11:57:47.718Z,5.45
2022-08-24T11:58:51.249Z,5.75
2022-08-24T12:00:10.356Z,5.65
2022-08-24T12:01:44.539Z,5.38
2022-08-24T12:03:03.175Z,5.60
2022-08-24T12:04:42.031Z,5.45
2022-08-24T12:05:57.317Z,6.68
2022-08-24T12:07:23.255Z,6.07
2022-08-24T12:08:49.114Z,6.05
2022-08-24T12:09:48.498Z,6.28
2022-08-24T12:11:07.156Z,6.20
2022-08-24T12:12:22.572Z,5.93
2022-08-24T12:13:44.357Z,4.90
2022-08-24T12:15:00.505Z,5.65
2022-08-24T12:16:19.508Z,5.70
2022-08-24T12:17:30.996Z,5.38
2022-08-24T12:18:45.419Z,5.32
2022-08-24T12:19:51.743Z,6.10
2022-08-24T12:20:49.766Z,5.90
2022-08-24T12:21:51.623Z,6.28
2022-08-24T12:22:51.826Z,5.65
2022-08-24T12:24:00.775Z,5.60
2022-08-24T12:25:02.896Z,5.18
2022-08-24T12:26:04.425Z,5.15
2022-08-24T12:27:08.727Z,4.57
2022-08-24T12:28:07.616Z,5.45
2022-08-24T12:29:08.535Z,4.82
2022-08-24T12:30:09.076Z,5.30
2022-08-24T12:31:24.545Z,5.57
2022-08-24T12:33:00.711Z,5.18
2022-08-24T12:34:02.600Z,5.35
2022-08-24T12:35:32.160Z,5.45
2022-08-24T12:36:39.882Z,5.20
2022-08-24T12:37:41.258Z,5.75
2022-08-24T12:38:48.059Z,5.65
2022-08-24T12:39:53.973Z,5.57
2022-08-24T12:40:58.843Z,5.07
2022-08-24T12:42:17.204Z,6.10
2022-08-24T12:43:40.630Z,5.43
2022-08-24T12:44:59.402Z,5.28
2022-08-24T12:46:00.242Z,5.00
2022-08-24T12:46:58.244Z,5.60
2022-08-24T12:48:03.974Z,5.68
2022-08-24T12:49:25.932Z,5.13
2022-08-24T12:50:45.467Z,5.40
2022-08-24T12:51:54.588Z,5.35
2022-08-24T12:53:12.173Z,4.88
2022-08-24T12:54:28.538Z,4.57
2022-08-24T12:55:41.026Z,4.97
2022-08-24T12:56:57.620Z,5.57
2022-08-24T12:57:57.070Z,5.15
2022-08-24T12:59:21.011Z,4.70
2022-08-24T13:00:21.476Z,4.85
2022-08-24T13:01:20.409Z,4.78
2022-08-24T13:02:22.406Z,5.20
2022-08-24T13:03:34.771Z,5.38
2022-08-24T13:04:34.619Z,4.85
2022-08-24T13:05:48.576Z,5.60
2022-08-24T13:07:01.456Z,4.82
2022-08-24T13:08:10.525Z,5.35
2022-08-24T13:09:15.266Z,4.45
2022-08-24T13:10:24.543Z,4.72
2022-08-24T13:11:24.208Z,4.80
2022-08-24T13:12:42.183Z,4.90
2022-08-24T13:13:45.435Z,5.22
2022-08-24T13:14:49.698Z,4.90
2022-08-24T13:15:56.593Z,5.30
2022-08-24T13:16:59.167Z,4.80
2022-08-24T13:19:28.569Z,5.28
2022-08-24T13:20:43.829Z,5.05
2022-08-24T13:21:45.187Z,5.57
2022-08-24T13:23:00.027Z,4.90
2022-08-24T13:24:27.981Z,5.65
2022-08-24T13:25:41.507Z,5.10
2022-08-24T13:26:38.215Z,5.25
2022-08-24T13:27:37.509Z,4.22
2022-08-24T13:28:46.722Z,4.68
2022-08-24T13:29:49.797Z,5.28
2022-08-24T13:31:14.584Z,4.80
2022-08-24T13:32:20.444Z,4.80
2022-08-24T13:33:20.726Z,5.40
2022-08-24T13:34:17.388Z,5.72
2022-08-24T13:36:18.677Z,6.05
2022-08-24T13:37:20.059Z,5.18
2022-08-24T13:38:34.634Z,5.60
2022-08-24T13:53:46.866Z,6.18
2022-08-24T13:54:52.229Z,5.95
2022-08-24T14:45:14.359Z,6.00
2022-08-24T14:46:38.281Z,6.07
2022-08-24T14:47:45.321Z,7.03
2022-08-24T14:49:16.687Z,6.38
2022-08-24T14:50:41.445Z,5.95
2022-08-24T14:51:40.866Z,6.68
2022-08-24T14:53:07.100Z,7.25
2022-08-24T14:54:12.766Z,6.28
2022-08-24T14:55:18.364Z,6.97
2022-08-24T14:56:44.356Z,6.43
2022-08-24T14:58:04.005Z,6.30
2022-08-24T14:59:11.279Z,7.35
2022-08-24T15:00:23.310Z,6.82
2022-08-24T15:01:55.540Z,7.20
2022-08-24T15:02:55.778Z,6.90
2022-08-24T15:04:17.000Z,5.88
2022-08-24T15:05:31.581Z,6.82
2022-08-24T15:06:45.869Z,7.15
2022-08-24T15:07:54.659Z,7.88
2022-08-24T15:08:52.475Z,6.97
2022-08-24T15:09:50.173Z,7.78
2022-08-24T15:10:58.227Z,7.82